Time;durP1;ratioP1;P1;durP2;ratioP2;P2;SDS_P1;SDS_P2;PMS_P1;PMS_P2;Temp;Humidity;BMP_temperature;BMP_pressure;BME280_temperature;BME280_humidity;BME280_pressure;Samples;Min_cycle;Max_cycle;Signal;HPM_P1;HPM_P2
2023/12/18 00:01:29;;;;;;;2.03;0.47;;;17.70;69.50;;;;;;6254919;23;20149;-84
2023/12/18 00:03:56;;;;;;;1.20;0.40;;;17.70;69.40;;;;;;6254633;23;20138;-85
2023/12/18 00:06:25;;;;;;;1.95;0.57;;;17.60;69.60;;;;;;6279634;22;20156;-86
2023/12/18 00:08:51;;;;;;;2.03;0.65;;;17.70;69.60;;;;;;6254672;23;20149;-85
2023/12/18 00:11:17;;;;;;;2.88;0.50;;;17.70;69.40;;;;;;6253262;23;20152;-84
2023/12/18 00:13:46;;;;;;;1.10;0.50;;;17.70;69.80;;;;;;6253856;23;20224;-84
2023/12/18 00:16:12;;;;;;;1.92;0.43;;;17.60;69.60;;;;;;6254552;23;20631;-85
2023/12/18 00:18:42;;;;;;;0.55;0.43;;;17.60;69.60;;;;;;6254136;23;20496;-84
2023/12/18 00:21:13;;;;;;;2.17;0.70;;;17.70;69.00;;;;;;6252801;23;20180;-84
2023/12/18 00:23:39;;;;;;;1.35;0.60;;;17.60;69.60;;;;;;6227610;23;20149;-84
2023/12/18 00:26:05;;;;;;;3.90;0.60;;;17.70;69.50;;;;;;6283219;22;20211;-84
2023/12/18 00:28:35;;;;;;;1.67;0.68;;;17.60;69.90;;;;;;6285350;22;20144;-84
2023/12/18 00:31:02;;;;;;;1.75;0.68;;;17.60;69.80;;;;;;6232849;22;20198;-85
2023/12/18 00:33:28;;;;;;;1.30;0.70;;;17.60;69.40;;;;;;6259794;22;20530;-84
2023/12/18 00:36:01;;;;;;;0.90;0.43;;;17.60;69.60;;;;;;6259086;22;20141;-84
2023/12/18 00:38:27;;;;;;;1.10;0.70;;;17.50;69.60;;;;;;6258442;22;20187;-86
2023/12/18 00:40:52;;;;;;;1.40;0.52;;;17.60;70.30;;;;;;6284410;22;20133;-85
2023/12/18 00:43:22;;;;;;;0.65;0.45;;;17.60;69.60;;;;;;6285990;22;20133;-85
2023/12/18 00:45:52;;;;;;;1.08;0.43;;;17.60;69.40;;;;;;6258949;22;20149;-84
2023/12/18 00:48:18;;;;;;;1.23;0.60;;;17.60;69.30;;;;;;6258750;22;20183;-84
2023/12/18 00:50:45;;;;;;;0.73;0.50;;;17.60;69.70;;;;;;6285259;22;20152;-84
2023/12/18 00:53:10;;;;;;;0.52;0.40;;;17.60;69.80;;;;;;6286423;22;20180;-84
2023/12/18 00:55:40;;;;;;;2.10;0.60;;;17.50;69.20;;;;;;6259859;22;20149;-84
2023/12/18 00:58:06;;;;;;;0.80;0.50;;;17.60;69.60;;;;;;6233969;22;20246;-85
2023/12/18 01:00:32;;;;;;;1.00;0.43;;;17.60;69.70;;;;;;6260000;22;20149;-85
2023/12/18 01:02:58;;;;;;;1.98;0.43;;;17.50;69.60;;;;;;6286619;22;20129;-85
2023/12/18 01:05:24;;;;;;;1.13;0.52;;;17.60;69.60;;;;;;6285612;22;20149;-86
2023/12/18 01:07:50;;;;;;;2.95;0.90;;;17.60;69.70;;;;;;6287321;22;20201;-86
2023/12/18 01:10:16;;;;;;;0.75;0.55;;;17.50;69.50;;;;;;6286770;22;20156;-85
2023/12/18 01:12:43;;;;;;;2.00;0.57;;;17.50;69.70;;;;;;6260685;22;20232;-86
2023/12/18 01:15:09;;;;;;;1.83;0.50;;;17.50;69.90;;;;;;6285594;22;20583;-84
2023/12/18 01:22:45;;;;;;;0.77;0.40;;;17.50;70.00;;;;;;6287334;22;20176;-85
2023/12/18 01:25:12;;;;;;;2.03;0.70;;;17.50;69.80;;;;;;6234885;22;20144;-88
2023/12/18 01:27:37;;;;;;;0.45;0.40;;;17.50;70.10;;;;;;6235290;22;20133;-87
2023/12/18 01:30:04;;;;;;;1.42;0.60;;;17.50;69.80;;;;;;6234105;22;20144;-85
2023/12/18 01:35:04;;;;;;;1.40;0.40;;;17.50;70.00;;;;;;6319002;22;20180;-84
2023/12/18 01:40:00;;;;;;;0.65;0.47;;;17.50;69.60;;;;;;6318715;22;20183;-85
2023/12/18 01:42:26;;;;;;;1.55;0.63;;;17.50;69.60;;;;;;6318130;22;20551;-84
2023/12/18 01:44:56;;;;;;;1.63;0.82;;;17.40;69.80;;;;;;6266439;22;20144;-84
2023/12/18 01:47:22;;;;;;;1.73;0.60;;;17.50;69.90;;;;;;6265959;22;20253;-85
2023/12/18 01:49:49;;;;;;;1.33;0.50;;;17.50;70.00;;;;;;6265458;22;20148;-85
2023/12/18 01:52:15;;;;;;;2.50;0.60;;;17.50;69.80;;;;;;6292214;22;20124;-86
2023/12/18 01:54:40;;;;;;;1.42;0.50;;;17.50;69.50;;;;;;6258895;22;20207;-86
2023/12/18 01:57:06;;;;;;;0.98;0.60;;;17.50;69.70;;;;;;6281698;22;20461;-86
2023/12/18 01:59:32;;;;;;;1.70;0.60;;;17.50;70.00;;;;;;6255404;23;20219;-85
2023/12/18 02:01:58;;;;;;;1.30;0.60;;;17.50;70.00;;;;;;6280526;22;20137;-87
2023/12/18 02:04:24;;;;;;;2.08;0.60;;;17.50;70.00;;;;;;6280878;22;20212;-86
2023/12/18 02:06:51;;;;;;;1.00;0.50;;;17.40;70.00;;;;;;6254949;23;20576;-86
2023/12/18 02:09:16;;;;;;;0.60;0.50;;;17.40;70.00;;;;;;6254671;23;20150;-86
2023/12/18 02:11:44;;;;;;;1.15;0.60;;;17.40;70.10;;;;;;6280100;22;20591;-86
2023/12/18 02:14:17;;;;;;;0.80;0.55;;;17.40;70.00;;;;;;6280255;22;20142;-86
2023/12/18 02:16:48;;;;;;;1.80;0.85;;;17.40;69.80;;;;;;6248614;22;20371;-85
2023/12/18 02:19:28;;;;;;;0.75;0.45;;;17.50;70.10;;;;;;6233623;22;20192;-86
2023/12/18 02:21:58;;;;;;;1.20;0.60;;;17.40;70.30;;;;;;6260298;22;20133;-86
2023/12/18 02:24:27;;;;;;;1.30;0.57;;;17.40;69.90;;;;;;6208970;22;20240;-86
2023/12/18 02:26:54;;;;;;;0.85;0.60;;;17.40;70.10;;;;;;6234532;22;20160;-86
2023/12/18 02:29:20;;;;;;;0.98;0.55;;;17.30;70.40;;;;;;6286546;22;20136;-86
2023/12/18 02:31:51;;;;;;;1.60;0.60;;;17.30;70.00;;;;;;6260480;22;20145;-85
2023/12/18 02:34:17;;;;;;;1.27;0.50;;;17.30;70.10;;;;;;6233910;22;20663;-86
2023/12/18 02:36:45;;;;;;;1.30;0.60;;;17.40;70.00;;;;;;6260133;22;20524;-85
2023/12/18 02:39:11;;;;;;;1.05;0.50;;;17.40;70.00;;;;;;6232113;22;20180;-86
2023/12/18 02:41:37;;;;;;;2.17;0.77;;;17.40;70.10;;;;;;6285667;22;20437;-85
2023/12/18 02:44:02;;;;;;;0.93;0.60;;;17.40;70.30;;;;;;6260532;22;20441;-85
2023/12/18 02:46:29;;;;;;;1.60;0.68;;;17.30;70.10;;;;;;6235026;22;20145;-85
2023/12/18 02:48:55;;;;;;;0.98;0.55;;;17.30;70.30;;;;;;6259132;22;20144;-86
2023/12/18 02:51:22;;;;;;;1.65;0.50;;;17.30;70.40;;;;;;6285396;22;20412;-85
2023/12/18 02:53:50;;;;;;;1.00;0.50;;;17.30;70.00;;;;;;6258659;22;20156;-85
2023/12/18 02:56:16;;;;;;;0.77;0.50;;;17.30;70.10;;;;;;6258333;22;20141;-85
2023/12/18 02:58:41;;;;;;;0.90;0.50;;;17.30;69.90;;;;;;6287852;22;20207;-85
2023/12/18 03:01:08;;;;;;;3.15;0.60;;;17.40;70.00;;;;;;6289435;22;20686;-84
2023/12/18 03:06:00;;;;;;;2.20;0.55;;;17.30;70.10;;;;;;6313805;22;20199;-85
2023/12/18 03:10:53;;;;;;;1.05;0.50;;;17.30;70.30;;;;;;6289867;22;20196;-85
2023/12/18 03:13:19;;;;;;;2.42;0.50;;;17.30;70.10;;;;;;6263931;22;20144;-83
2023/12/18 03:15:46;;;;;;;1.15;0.60;;;17.30;70.40;;;;;;6290697;22;20132;-84
2023/12/18 03:18:14;;;;;;;0.88;0.40;;;17.30;70.50;;;;;;6290266;22;20187;-86
2023/12/18 03:20:40;;;;;;;0.98;0.47;;;17.30;70.10;;;;;;6212301;22;20155;-85
2023/12/18 03:23:10;;;;;;;0.85;0.57;;;17.30;70.40;;;;;;6263989;22;20221;-87
2023/12/18 03:25:36;;;;;;;0.88;0.60;;;17.30;70.20;;;;;;6222093;23;20145;-87
2023/12/18 03:28:03;;;;;;;1.10;0.50;;;17.40;70.30;;;;;;6195856;23;20157;-84
2023/12/18 03:30:29;;;;;;;2.03;0.50;;;17.30;70.40;;;;;;6196477;23;20143;-85
2023/12/18 03:32:55;;;;;;;0.70;0.60;;;17.30;70.40;;;;;;6237636;22;20195;-84
2023/12/18 03:35:21;;;;;;;1.77;0.50;;;17.30;70.40;;;;;;6262663;22;20152;-87
2023/12/18 03:37:47;;;;;;;1.42;0.60;;;17.30;70.50;;;;;;6288707;22;20219;-83
2023/12/18 03:40:13;;;;;;;0.80;0.57;;;17.20;71.40;;;;;;6288519;22;20543;-85
2023/12/18 03:42:41;;;;;;;1.00;0.50;;;17.20;70.20;;;;;;6288736;22;20211;-87
2023/12/18 03:45:08;;;;;;;0.80;0.65;;;17.30;70.70;;;;;;6288804;22;20162;-84
2023/12/18 03:47:34;;;;;;;2.97;0.60;;;17.30;70.50;;;;;;6262587;22;20140;-85
2023/12/18 03:50:02;;;;;;;1.45;0.50;;;17.20;70.30;;;;;;6290220;22;20193;-85
2023/12/18 03:52:29;;;;;;;1.27;0.52;;;17.20;70.30;;;;;;6288485;22;20552;-85
2023/12/18 03:54:57;;;;;;;1.38;0.50;;;17.20;70.30;;;;;;6263175;22;20598;-86
2023/12/18 03:57:24;;;;;;;0.80;0.45;;;17.10;70.40;;;;;;6316892;22;20132;-87
2023/12/18 03:59:51;;;;;;;0.63;0.52;;;17.20;70.60;;;;;;6288529;22;20216;-84
2023/12/18 04:02:16;;;;;;;2.40;0.60;;;17.20;70.40;;;;;;6262465;22;20173;-86
2023/12/18 04:04:44;;;;;;;0.75;0.60;;;17.30;70.30;;;;;;6288641;22;20184;-85
2023/12/18 04:07:11;;;;;;;1.30;0.50;;;17.20;70.50;;;;;;6262907;22;20202;-85
2023/12/18 04:09:39;;;;;;;1.02;0.60;;;17.10;70.70;;;;;;6289720;22;20132;-86
2023/12/18 04:12:05;;;;;;;1.25;0.57;;;17.20;70.80;;;;;;6263033;22;20136;-86
2023/12/18 04:14:33;;;;;;;0.40;0.40;;;17.20;70.80;;;;;;6289753;22;20128;-84
2023/12/18 04:16:59;;;;;;;0.90;0.70;;;17.20;70.70;;;;;;6289384;22;20146;-85
2023/12/18 04:19:28;;;;;;;0.90;0.70;;;17.20;70.50;;;;;;6263134;22;20199;-87
2023/12/18 04:21:53;;;;;;;1.77;0.70;;;17.20;70.80;;;;;;6263167;22;20151;-85
2023/12/18 04:24:19;;;;;;;0.73;0.50;;;17.10;70.40;;;;;;6289494;22;20144;-84
2023/12/18 04:26:47;;;;;;;2.47;0.60;;;17.30;70.40;;;;;;6289206;22;20556;-84
2023/12/18 04:29:14;;;;;;;0.93;0.60;;;17.20;70.40;;;;;;6263605;22;20586;-86
2023/12/18 04:34:06;;;;;;;1.00;0.60;;;17.20;70.50;;;;;;6315481;22;20483;-85
2023/12/18 04:36:38;;;;;;;0.57;0.50;;;17.20;70.50;;;;;;6287649;22;20148;-84
2023/12/18 04:39:09;;;;;;;1.50;0.50;;;17.20;70.40;;;;;;6312896;22;20164;-84
2023/12/18 04:41:35;;;;;;;0.40;0.40;;;17.20;70.30;;;;;;6262310;22;20152;-84
2023/12/18 04:44:01;;;;;;;0.93;0.60;;;17.20;70.60;;;;;;6317639;22;20128;-84
2023/12/18 04:46:33;;;;;;;1.50;0.50;;;17.20;70.50;;;;;;6316124;22;20128;-85
2023/12/18 04:51:35;;;;;;;1.45;0.50;;;17.20;70.80;;;;;;6317455;22;20279;-84
2023/12/18 04:54:01;;;;;;;0.82;0.57;;;17.10;70.80;;;;;;6292080;22;20261;-84
2023/12/18 04:56:27;;;;;;;0.57;0.50;;;17.20;70.40;;;;;;6283723;22;20179;-85
2023/12/18 04:58:53;;;;;;;1.83;0.75;;;17.20;70.70;;;;;;6258311;22;20180;-84
2023/12/18 05:01:19;;;;;;;0.60;0.47;;;17.10;70.70;;;;;;6258972;22;20141;-84
2023/12/18 05:03:45;;;;;;;1.38;0.60;;;17.10;70.80;;;;;;6284109;22;20584;-85
2023/12/18 05:06:27;;;;;;;0.47;0.40;;;17.10;71.00;;;;;;6285704;22;20201;-85
2023/12/18 05:08:55;;;;;;;1.40;0.57;;;17.10;70.70;;;;;;6284611;22;20129;-86
2023/12/18 05:13:46;;;;;;;1.00;0.43;;;17.10;70.80;;;;;;6314199;22;20199;-85
2023/12/18 05:16:13;;;;;;;0.95;0.50;;;17.10;70.60;;;;;;6290659;22;20184;-84
2023/12/18 05:18:40;;;;;;;0.68;0.60;;;17.10;70.30;;;;;;6264825;22;20183;-85
2023/12/18 05:21:06;;;;;;;1.35;0.60;;;17.20;70.40;;;;;;6264267;22;20626;-86
2023/12/18 05:23:35;;;;;;;0.77;0.50;;;17.20;70.40;;;;;;6265176;22;20163;-86
2023/12/18 05:26:03;;;;;;;0.68;0.50;;;17.10;70.80;;;;;;6290867;22;20132;-84
2023/12/18 05:28:29;;;;;;;1.58;0.50;;;17.10;70.60;;;;;;6289519;22;20151;-85
2023/12/18 05:30:55;;;;;;;1.40;0.50;;;17.10;70.50;;;;;;6290998;22;20128;-85
2023/12/18 05:33:22;;;;;;;0.47;0.40;;;17.10;71.60;;;;;;6291787;22;20134;-84
2023/12/18 05:35:52;;;;;;;1.75;0.43;;;17.10;70.70;;;;;;6265801;22;20562;-84
2023/12/18 05:38:20;;;;;;;1.35;0.55;;;17.10;70.60;;;;;;6316727;22;20163;-85
2023/12/18 05:40:47;;;;;;;1.45;0.70;;;17.10;70.40;;;;;;6263341;22;20148;-84
2023/12/18 05:43:13;;;;;;;1.27;0.57;;;17.10;70.80;;;;;;6263612;22;20144;-85
2023/12/18 05:45:40;;;;;;;1.40;0.60;;;17.10;70.70;;;;;;6263926;22;20747;-85
2023/12/18 05:48:06;;;;;;;3.22;0.63;;;17.10;70.40;;;;;;6263634;22;20140;-85
2023/12/18 05:50:34;;;;;;;1.42;0.60;;;17.20;70.20;;;;;;6315588;22;20128;-87
2023/12/18 05:53:01;;;;;;;0.95;0.50;;;17.20;70.70;;;;;;6290247;22;20128;-85
2023/12/18 05:55:32;;;;;;;1.40;0.47;;;17.10;70.40;;;;;;6290225;22;20162;-84
2023/12/18 05:57:59;;;;;;;0.85;0.50;;;17.10;70.60;;;;;;6264878;22;20206;-85
2023/12/18 06:00:26;;;;;;;1.25;0.50;;;17.00;70.70;;;;;;6288451;22;20140;-84
2023/12/18 06:02:52;;;;;;;1.20;0.60;;;17.10;70.70;;;;;;6236202;22;20151;-86
2023/12/18 06:05:23;;;;;;;1.20;0.50;;;17.10;70.70;;;;;;6314636;22;20135;-85
2023/12/18 06:07:48;;;;;;;1.00;0.60;;;17.10;70.50;;;;;;6264424;22;20145;-85
2023/12/18 06:10:14;;;;;;;1.63;0.50;;;17.10;70.50;;;;;;6262347;22;20172;-86
2023/12/18 06:15:09;;;;;;;0.90;0.50;;;17.10;70.80;;;;;;6312643;22;20262;-85
2023/12/18 06:17:36;;;;;;;1.50;0.70;;;17.10;70.40;;;;;;6209020;22;20159;-87
2023/12/18 06:20:05;;;;;;;0.57;0.45;;;17.10;70.50;;;;;;6261917;22;20163;-85
2023/12/18 06:22:32;;;;;;;2.22;0.50;;;17.10;70.50;;;;;;6313566;22;20121;-87
2023/12/18 06:25:05;;;;;;;0.68;0.52;;;17.10;70.70;;;;;;6313562;22;20170;-86
2023/12/18 06:27:32;;;;;;;1.35;0.70;;;17.10;70.40;;;;;;6309968;22;20174;-86
2023/12/18 06:29:58;;;;;;;1.08;0.60;;;17.10;70.80;;;;;;6311505;22;20194;-84
2023/12/18 06:32:27;;;;;;;0.65;0.52;;;17.10;70.90;;;;;;6287692;22;20148;-87
2023/12/18 06:34:52;;;;;;;0.95;0.50;;;17.10;70.60;;;;;;6264403;22;20156;-86
2023/12/18 06:37:18;;;;;;;1.95;0.60;;;17.10;70.60;;;;;;6288059;22;20452;-84
2023/12/18 06:39:59;;;;;;;1.17;0.55;;;17.10;70.50;;;;;;6288732;22;20167;-86
2023/12/18 06:42:26;;;;;;;0.75;0.50;;;17.10;69.80;;;;;;6219307;23;20159;-85
2023/12/18 06:44:55;;;;;;;1.20;0.60;;;17.20;70.50;;;;;;6173048;23;20210;-86
2023/12/18 06:47:33;;;;;;;1.55;0.55;;;17.10;70.40;;;;;;6147078;23;20150;-85
2023/12/18 06:53:13;;;;;;;1.83;0.60;;;17.10;70.50;;;;;;6042705;23;20153;-84
2023/12/18 06:55:39;;;;;;;1.27;0.63;;;17.10;70.40;;;;;;6038590;23;20221;-83
2023/12/18 06:58:05;;;;;;;1.48;0.60;;;17.10;70.50;;;;;;6039159;23;20615;-85
2023/12/18 07:00:35;;;;;;;1.23;0.60;;;17.10;70.70;;;;;;6015170;23;20257;-85
2023/12/18 07:03:01;;;;;;;3.75;0.82;;;17.00;70.60;;;;;;6015453;23;20242;-84
2023/12/18 07:05:29;;;;;;;0.95;0.50;;;17.10;70.40;;;;;;6015254;23;20162;-84
2023/12/18 07:08:22;;;;;;;1.17;0.70;;;17.00;70.20;;;;;;6040577;23;20238;-85
2023/12/18 07:10:49;;;;;;;1.65;0.57;;;17.10;70.50;;;;;;5958579;23;20594;-84
2023/12/18 07:13:15;;;;;;;1.73;0.80;;;17.10;70.30;;;;;;6030114;23;20200;-85
2023/12/18 07:15:42;;;;;;;1.05;0.50;;;17.10;70.30;;;;;;6070877;23;20154;-89
2023/12/18 07:18:08;;;;;;;1.23;0.50;;;17.10;70.10;;;;;;6074815;23;20641;-86
2023/12/18 07:21:20;;;;;;;1.35;0.70;;;17.20;70.40;;;;;;6096179;23;20245;-86
2023/12/18 07:24:30;;;;;;;1.63;0.52;;;17.10;69.90;;;;;;6048141;23;20160;-84
2023/12/18 07:26:58;;;;;;;2.63;0.73;;;17.20;69.90;;;;;;6068761;23;20221;-82
2023/12/18 07:29:33;;;;;;;1.10;0.70;;;17.20;69.90;;;;;;6112381;23;20292;-85
2023/12/18 07:32:14;;;;;;;0.80;0.50;;;17.20;69.60;;;;;;6159192;23;20185;-85
2023/12/18 07:34:42;;;;;;;0.50;0.43;;;17.20;69.20;;;;;;6136225;23;20153;-85
2023/12/18 07:37:10;;;;;;;0.85;0.63;;;17.20;69.20;;;;;;6133471;23;20477;-84
2023/12/18 07:39:36;;;;;;;0.75;0.50;;;17.30;69.40;;;;;;6133780;23;20175;-85
2023/12/18 07:42:05;;;;;;;1.65;0.70;;;17.30;69.40;;;;;;6134032;23;20640;-86
2023/12/18 07:44:37;;;;;;;2.47;0.70;;;17.30;69.40;;;;;;6135931;23;20143;-88
2023/12/18 07:47:06;;;;;;;1.00;0.50;;;17.20;69.20;;;;;;6128200;23;20163;-86
2023/12/18 07:50:03;;;;;;;0.43;0.40;;;17.30;69.40;;;;;;6100722;23;20244;-85
2023/12/18 07:52:29;;;;;;;0.98;0.52;;;17.30;69.40;;;;;;6074977;23;20159;-85
2023/12/18 07:55:07;;;;;;;1.13;0.57;;;17.30;69.10;;;;;;6076755;23;20152;-85
2023/12/18 07:57:33;;;;;;;1.65;0.60;;;17.30;69.10;;;;;;6067377;23;20209;-86
2023/12/18 07:59:58;;;;;;;0.95;0.50;;;17.40;69.10;;;;;;6068630;23;20532;-85
2023/12/18 08:02:28;;;;;;;1.02;0.52;;;17.20;69.20;;;;;;6128545;23;20191;-87
2023/12/18 08:05:49;;;;;;;0.63;0.50;;;17.30;69.00;;;;;;6154371;23;20162;-89
2023/12/18 08:08:18;;;;;;;0.88;0.45;;;17.30;69.20;;;;;;6156223;23;20179;-86
2023/12/18 08:21:36;;;;;;;;;;;;;;;;;;;;;
2023/12/18 08:35:17;;;;;;;2.17;0.70;;;17.40;69.40;;;;;;5776156;24;20312;-85
2023/12/18 08:38:20;;;;;;;3.58;0.55;;;17.40;69.50;;;;;;5770242;24;20169;-86
2023/12/18 08:55:13;;;;;;;1.15;0.60;;;17.80;67.00;;;;;;5772523;24;20281;-86
2023/12/18 08:58:34;;;;;;;2.38;0.63;;;17.80;67.20;;;;;;5776604;24;20496;-88
2023/12/18 09:01:53;;;;;;;0.90;0.60;;;17.70;68.10;;;;;;5824429;24;20176;-88
2023/12/18 09:15:29;;;;;;;4.05;0.70;;;17.80;68.50;;;;;;5939458;24;20560;-86
2023/12/18 10:43:27;;;;;;;1.35;0.60;;;18.00;68.90;;;;;;6285287;22;20483;-90
2023/12/18 10:46:06;;;;;;;4.32;0.57;;;18.00;69.00;;;;;;6163956;23;20158;-90
2023/12/18 10:48:56;;;;;;;4.32;1.00;;;18.10;68.90;;;;;;6166345;23;20184;-90
2023/12/18 10:51:33;;;;;;;14.35;1.45;;;18.00;68.90;;;;;;6083636;23;20159;-90
2023/12/18 10:54:58;;;;;;;8.38;0.93;;;18.10;68.70;;;;;;6079407;23;20228;-90
2023/12/18 10:57:49;;;;;;;6.13;0.80;;;18.10;68.70;;;;;;6121634;23;20152;-90
2023/12/18 11:00:40;;;;;;;;;;;;;;;;;;;;;
2023/12/18 11:03:41;;;;;;;4.10;0.88;;;18.10;68.80;;;;;;6044100;23;20182;-91
2023/12/18 11:07:22;;;;;;;6.00;0.80;;;18.10;68.70;;;;;;6048316;23;20217;-92
2023/12/18 11:10:11;;;;;;;9.32;1.08;;;18.10;68.60;;;;;;5915287;24;20164;-89
2023/12/18 11:17:04;;;;;;;;;;;;;;;;;;;;;
2023/12/18 11:19:52;;;;;;;5.07;0.70;;;18.10;68.50;;;;;;5912059;24;20192;-89
2023/12/18 11:26:02;;;;;;;2.05;0.60;;;18.00;69.10;;;;;;5883304;24;20157;-88
2023/12/18 11:29:12;;;;;;;7.43;0.63;;;18.00;68.70;;;;;;5923418;24;20190;-89
2023/12/18 11:32:15;;;;;;;10.35;0.82;;;18.00;68.80;;;;;;5886952;24;20187;-89
2023/12/18 11:34:58;;;;;;;4.55;0.77;;;17.90;68.50;;;;;;5835369;24;20184;-88
2023/12/18 11:37:48;;;;;;;6.07;0.82;;;17.90;68.60;;;;;;5845843;24;20194;-90
2023/12/18 11:41:01;;;;;;;4.35;0.68;;;18.00;68.90;;;;;;5853705;24;20167;-90
2023/12/18 11:44:14;;;;;;;4.90;0.73;;;17.90;68.70;;;;;;5878020;24;20212;-90
2023/12/18 11:46:44;;;;;;;1.15;0.55;;;17.90;68.30;;;;;;5974839;23;20192;-89
2023/12/18 11:49:15;;;;;;;3.55;0.80;;;18.00;67.70;;;;;;5992139;23;20159;-90
2023/12/18 11:51:44;;;;;;;7.45;0.55;;;18.10;68.00;;;;;;5990060;23;20217;-90
2023/12/18 11:54:23;;;;;;;4.10;1.15;;;18.10;68.10;;;;;;6043194;23;20293;-90
2023/12/18 11:57:01;;;;;;;3.22;0.65;;;18.00;67.90;;;;;;5986883;23;20232;-90
2023/12/18 11:59:50;;;;;;;;;;;;;;;;;;;;;
2023/12/18 12:02:19;;;;;;;1.67;0.57;;;18.10;66.50;;;;;;6106957;23;20176;-91
2023/12/18 12:05:01;;;;;;;1.85;0.63;;;18.10;67.20;;;;;;6087267;23;20214;-88
2023/12/18 12:26:30;;;;;;;5.85;1.00;;;18.00;67.90;;;;;;6262220;22;20678;-91
2023/12/18 12:29:24;;;;;;;3.97;0.70;;;18.00;67.30;;;;;;6211315;23;20181;-90
2023/12/18 12:32:33;;;;;;;7.10;1.23;;;18.10;67.40;;;;;;6174124;23;20150;-93
2023/12/18 12:39:33;;;;;;;;;;;;;;;;;;;;;
2023/12/18 13:02:36;;;;;;;2.55;0.70;;;18.10;67.30;;;;;;6119189;23;20185;-89
2023/12/18 13:05:39;;;;;;;2.45;0.60;;;18.10;67.10;;;;;;6108743;23;20186;-89
2023/12/18 13:08:24;;;;;;;4.95;0.55;;;18.10;67.80;;;;;;6022013;23;20151;-88
2023/12/18 13:17:34;;;;;;;3.42;0.60;;;18.10;67.50;;;;;;5954625;24;20163;-90
2023/12/18 13:20:53;;;;;;;;;;;;;;;;;;;;;
2023/12/18 13:23:58;;;;;;;;;;;;;;;;;;;;;
2023/12/18 13:26:26;;;;;;;0.88;0.50;;;18.10;66.70;;;;;;5870089;24;20192;-90
2023/12/18 13:28:54;;;;;;;1.75;0.50;;;18.10;66.90;;;;;;5856966;24;20163;-88
2023/12/18 13:32:13;;;;;;;2.17;0.70;;;18.10;66.80;;;;;;5836904;24;20223;-91
2023/12/18 14:24:07;;;;;;;4.43;0.52;;;18.10;66.80;;;;;;6323205;22;20159;-88
2023/12/18 14:30:35;;;;;;;1.38;0.40;;;18.20;67.10;;;;;;6115780;23;20184;-89
2023/12/18 14:40:02;;;;;;;1.52;0.50;;;18.20;66.50;;;;;;6023545;23;20235;-88
2023/12/18 14:47:26;;;;;;;0.93;0.30;;;18.20;66.70;;;;;;5885979;24;20510;-88
2023/12/18 14:50:22;;;;;;;;;;;;;;;;;;;;;
2023/12/18 14:52:59;;;;;;;;;;;;;;;;;;;;;
2023/12/18 14:55:54;;;;;;;1.88;0.50;;;18.20;67.10;;;;;;5725952;25;20184;-89
2023/12/18 14:59:21;;;;;;;;;;;;;;;;;;;;;
2023/12/18 15:18:54;;;;;;;3.25;0.40;;;18.60;65.40;;;;;;5940879;24;20257;-87
2023/12/18 15:21:47;;;;;;;1.90;0.60;;;18.60;65.00;;;;;;5980713;23;20150;-89
2023/12/18 15:35:53;;;;;;;;;;;;;;;;;;;;;
2023/12/18 15:39:26;;;;;;;1.17;0.30;;;18.50;66.70;;;;;;5861344;24;20328;-89
2023/12/18 16:50:28;;;;;;;;;;;;;;;;;;;;;
2023/12/18 16:53:48;;;;;;;1.88;0.70;;;19.00;66.90;;;;;;6050298;23;20157;-88
2023/12/18 17:34:55;;;;;;;2.58;0.77;;;19.30;67.80;;;;;;6141135;23;20202;-81
2023/12/18 17:37:25;;;;;;;2.40;0.50;;;19.30;67.70;;;;;;6090350;23;20135;-81
2023/12/18 17:39:53;;;;;;;1.73;0.38;;;19.30;68.40;;;;;;6087794;23;20210;-82
2023/12/18 17:42:20;;;;;;;2.35;0.50;;;19.20;67.30;;;;;;6091230;23;20132;-80
2023/12/18 17:45:40;;;;;;;;;;;;;;;;;;;;;
2023/12/18 17:48:57;;;;;;;3.42;0.40;;;19.20;67.60;;;;;;5912609;24;20219;-84
2023/12/18 17:51:27;;;;;;;2.65;0.40;;;19.10;67.60;;;;;;5891173;24;20176;-84
2023/12/18 17:54:24;;;;;;;;;;;;;;;;;;;;;
2023/12/18 17:57:22;;;;;;;0.85;0.38;;;19.20;67.80;;;;;;5886391;24;20188;-84
2023/12/18 19:18:13;;;;;;;4.15;0.90;;;19.30;68.70;;;;;;6145897;23;20202;-83
2023/12/18 19:20:39;;;;;;;5.75;0.95;;;19.30;68.80;;;;;;6103779;23;20136;-82
2023/12/18 19:23:06;;;;;;;2.35;0.32;;;19.30;69.20;;;;;;6108073;23;20136;-82
2023/12/18 19:25:31;;;;;;;0.40;0.40;;;19.30;68.70;;;;;;6058335;23;20235;-83
2023/12/18 19:28:00;;;;;;;0.47;0.40;;;19.30;68.00;;;;;;6057373;23;20256;-83
2023/12/18 19:30:27;;;;;;;2.25;0.40;;;19.30;68.40;;;;;;6107121;23;20147;-84
2023/12/18 19:32:52;;;;;;;1.05;0.30;;;19.20;68.60;;;;;;6083036;23;20171;-80
2023/12/18 19:35:21;;;;;;;1.60;0.40;;;19.20;68.50;;;;;;6084021;23;20213;-82
2023/12/18 19:37:48;;;;;;;1.92;0.60;;;19.30;68.30;;;;;;6085374;23;20156;-81
2023/12/18 19:40:13;;;;;;;2.58;0.55;;;19.20;68.50;;;;;;6106620;23;20203;-83
2023/12/18 19:42:39;;;;;;;1.60;0.32;;;19.20;68.20;;;;;;6081122;23;20215;-83
2023/12/18 19:45:06;;;;;;;1.10;0.43;;;19.30;67.60;;;;;;6079825;23;20151;-83
2023/12/18 19:47:32;;;;;;;0.98;0.30;;;19.30;68.50;;;;;;6081603;23;20430;-84
2023/12/18 19:50:00;;;;;;;3.28;0.45;;;19.20;68.10;;;;;;6080225;23;20179;-83
2023/12/18 19:52:26;;;;;;;2.65;0.40;;;19.20;67.40;;;;;;6104172;23;20136;-81
2023/12/18 19:54:54;;;;;;;1.25;0.50;;;19.20;67.70;;;;;;6103369;23;20143;-82
2023/12/18 19:57:20;;;;;;;2.28;0.50;;;19.10;68.70;;;;;;6075491;23;20151;-83
2023/12/18 19:59:46;;;;;;;2.30;0.60;;;19.00;67.70;;;;;;6053124;23;20159;-81
2023/12/18 20:02:35;;;;;;;0.65;0.40;;;18.90;67.00;;;;;;6100128;23;20140;-82
2023/12/18 20:05:01;;;;;;;1.50;0.40;;;18.90;68.20;;;;;;6064324;23;20153;-81
2023/12/18 20:07:26;;;;;;;1.02;0.30;;;18.90;68.70;;;;;;6042301;23;20201;-81
2023/12/18 20:09:52;;;;;;;0.30;0.30;;;18.70;68.80;;;;;;6040430;23;20256;-81
2023/12/18 20:12:23;;;;;;;2.28;0.50;;;18.70;68.30;;;;;;6039699;23;20153;-81
2023/12/18 20:14:49;;;;;;;0.88;0.50;;;18.70;68.70;;;;;;6039899;23;20240;-81
2023/12/18 20:17:15;;;;;;;0.70;0.50;;;18.80;68.80;;;;;;6065612;23;20224;-82
2023/12/18 20:19:41;;;;;;;0.40;0.40;;;18.80;68.70;;;;;;6012512;23;20162;-82
2023/12/18 20:22:07;;;;;;;0.80;0.50;;;18.80;68.00;;;;;;6035274;23;20236;-82
2023/12/18 20:24:33;;;;;;;3.08;0.65;;;18.80;66.80;;;;;;6036600;23;20185;-81
2023/12/18 20:27:00;;;;;;;1.05;0.65;;;18.80;66.40;;;;;;6013108;23;20210;-82
2023/12/18 20:29:26;;;;;;;1.30;0.82;;;18.90;65.90;;;;;;6035961;23;20595;-82
2023/12/18 20:31:56;;;;;;;1.08;0.50;;;18.90;66.10;;;;;;6034455;23;20143;-81
2023/12/18 20:34:24;;;;;;;1.20;0.60;;;18.80;68.40;;;;;;5961648;23;20192;-83
2023/12/18 20:36:52;;;;;;;0.63;0.50;;;18.80;66.70;;;;;;6041470;23;20156;-82
2023/12/18 20:39:20;;;;;;;2.88;0.68;;;18.80;68.00;;;;;;6018127;23;20161;-82
2023/12/18 20:41:46;;;;;;;1.00;0.60;;;18.70;67.40;;;;;;6017541;23;20160;-82
2023/12/18 20:44:11;;;;;;;0.63;0.60;;;18.80;66.90;;;;;;6042973;23;20141;-82
2023/12/18 20:46:38;;;;;;;1.88;1.25;;;18.80;65.60;;;;;;6067933;23;20200;-81
2023/12/18 20:49:04;;;;;;;1.10;0.70;;;18.80;65.40;;;;;;6044222;23;20176;-82
2023/12/18 20:51:30;;;;;;;1.73;0.50;;;18.80;65.80;;;;;;6092413;23;20160;-81
2023/12/18 20:53:55;;;;;;;0.70;0.55;;;18.80;67.00;;;;;;6097776;23;20132;-81
2023/12/18 20:56:21;;;;;;;2.92;0.60;;;18.70;67.20;;;;;;6074147;23;20784;-82
2023/12/18 20:58:47;;;;;;;0.40;0.40;;;18.60;68.60;;;;;;6050581;23;20190;-82
2023/12/18 21:01:13;;;;;;;0.57;0.40;;;18.50;69.60;;;;;;6074499;23;20139;-81
2023/12/18 21:03:38;;;;;;;1.48;0.52;;;18.40;70.10;;;;;;6074671;23;20164;-81
2023/12/18 21:06:05;;;;;;;0.80;0.50;;;18.40;70.70;;;;;;6074167;23;20610;-82
2023/12/18 21:08:30;;;;;;;0.50;0.40;;;18.30;70.50;;;;;;6050661;23;20176;-81
2023/12/18 21:10:56;;;;;;;0.43;0.35;;;18.20;71.00;;;;;;6074238;23;20443;-81
2023/12/18 21:13:24;;;;;;;1.50;0.40;;;18.20;71.00;;;;;;6074360;23;20133;-81
2023/12/18 21:15:50;;;;;;;0.73;0.43;;;18.20;71.00;;;;;;6075389;23;20129;-81
2023/12/18 21:18:16;;;;;;;0.70;0.50;;;18.20;70.90;;;;;;6097828;23;20191;-81
2023/12/18 21:20:42;;;;;;;0.50;0.40;;;18.20;70.90;;;;;;6098444;23;20468;-82
2023/12/18 21:23:08;;;;;;;1.10;0.40;;;18.20;70.90;;;;;;6097183;23;20147;-82
2023/12/18 21:25:35;;;;;;;0.30;0.30;;;18.20;70.80;;;;;;6098196;23;20187;-82
2023/12/18 21:28:01;;;;;;;0.43;0.30;;;18.30;70.80;;;;;;6074837;23;20132;-81
2023/12/18 21:30:28;;;;;;;0.73;0.50;;;18.30;70.90;;;;;;6074092;23;20549;-81
2023/12/18 21:32:54;;;;;;;0.80;0.50;;;18.20;71.00;;;;;;6074094;23;20615;-81
2023/12/18 21:35:21;;;;;;;1.48;0.60;;;18.10;71.20;;;;;;6050932;23;20145;-80
2023/12/18 21:37:47;;;;;;;0.85;0.60;;;18.10;71.40;;;;;;6150561;23;20290;-81
2023/12/18 21:40:13;;;;;;;0.50;0.50;;;18.10;71.40;;;;;;6153357;23;20475;-80
2023/12/18 21:42:39;;;;;;;2.35;0.60;;;18.00;71.50;;;;;;6153586;23;20136;-82
2023/12/18 21:45:07;;;;;;;0.30;0.30;;;18.00;71.60;;;;;;6155482;23;20167;-80
2023/12/18 21:47:33;;;;;;;0.90;0.60;;;18.00;71.70;;;;;;6153375;23;20240;-80
2023/12/18 21:49:58;;;;;;;1.15;0.40;;;18.00;71.70;;;;;;6152174;23;20610;-81